Time;durP1;ratioP1;P1;durP2;ratioP2;P2;SDS_P1;SDS_P2;PMS_P1;PMS_P2;Temp;Humidity;BMP_temperature;BMP_pressure;BME280_temperature;BME280_humidity;BME280_pressure;Samples;Min_cycle;Max_cycle;Signal;HPM_P1;HPM_P2
2022/05/11 00:02:17;;;;;;;4.5;4.1;;;;;;;;;;;;;
2022/05/11 00:04:43;;;;;;;5.9;4.6;;;;;;;;;;;;;
2022/05/11 00:07:08;;;;;;;6.9;4.5;;;;;;;;;;;;;
2022/05/11 00:09:34;;;;;;;5.1;4.6;;;;;;;;;;;;;
2022/05/11 00:11:59;;;;;;;7.5;4.9;;;;;;;;;;;;;
2022/05/11 00:14:25;;;;;;;5.5;4.5;;;;;;;;;;;;;
2022/05/11 00:16:50;;;;;;;4.7;4.1;;;;;;;;;;;;;
2022/05/11 00:19:19;;;;;;;5.2;4.5;;;;;;;;;;;;;
2022/05/11 00:21:41;;;;;;;4.7;4.3;;;;;;;;;;;;;
2022/05/11 00:24:07;;;;;;;4.7;3.7;;;;;;;;;;;;;
2022/05/11 00:26:32;;;;;;;4.5;4.1;;;;;;;;;;;;;
2022/05/11 00:28:59;;;;;;;7.6;4.2;;;;;;;;;;;;;
2022/05/11 00:31:25;;;;;;;4.5;3.9;;;;;;;;;;;;;
2022/05/11 00:33:52;;;;;;;5.5;3.8;;;;;;;;;;;;;
2022/05/11 00:36:16;;;;;;;5.6;4.3;;;;;;;;;;;;;
2022/05/11 00:38:45;;;;;;;5;4.2;;;;;;;;;;;;;
2022/05/11 00:41:08;;;;;;;4.2;3.8;;;;;;;;;;;;;
2022/05/11 00:43:33;;;;;;;5.7;4.4;;;;;;;;;;;;;
2022/05/11 00:45:58;;;;;;;5.4;4.5;;;;;;;;;;;;;
2022/05/11 00:50:49;;;;;;;5.3;3.7;;;;;;;;;;;;;
2022/05/11 00:53:17;;;;;;;4.4;4;;;;;;;;;;;;;
2022/05/11 00:55:41;;;;;;;4.9;4.1;;;;;;;;;;;;;
2022/05/11 00:58:07;;;;;;;4.6;3.9;;;;;;;;;;;;;
2022/05/11 01:00:32;;;;;;;4.3;3.9;;;;;;;;;;;;;
2022/05/11 01:02:57;;;;;;;5.5;4.1;;;;;;;;;;;;;
2022/05/11 01:05:25;;;;;;;7.3;5;;;;;;;;;;;;;
2022/05/11 01:07:50;;;;;;;8.8;4.8;;;;;;;;;;;;;
2022/05/11 01:10:17;;;;;;;6;4.7;;;;;;;;;;;;;
2022/05/11 01:12:41;;;;;;;5.4;4.3;;;;;;;;;;;;;
2022/05/11 01:15:08;;;;;;;6.1;4.8;;;;;;;;;;;;;
2022/05/11 01:17:33;;;;;;;7.3;5;;;;;;;;;;;;;
2022/05/11 01:19:58;;;;;;;6.5;4.6;;;;;;;;;;;;;
2022/05/11 01:22:24;;;;;;;5;4.2;;;;;;;;;;;;;
2022/05/11 01:24:50;;;;;;;6.3;4.9;;;;;;;;;;;;;
2022/05/11 01:27:15;;;;;;;6.3;4.4;;;;;;;;;;;;;
2022/05/11 01:29:42;;;;;;;7.1;4.8;;;;;;;;;;;;;
2022/05/11 01:32:07;;;;;;;5.4;4.6;;;;;;;;;;;;;
2022/05/11 01:34:33;;;;;;;4.9;4.4;;;;;;;;;;;;;
2022/05/11 01:36:59;;;;;;;5.8;4.3;;;;;;;;;;;;;
2022/05/11 01:39:24;;;;;;;6.9;4.4;;;;;;;;;;;;;
2022/05/11 01:41:49;;;;;;;6.9;4.7;;;;;;;;;;;;;
2022/05/11 01:44:15;;;;;;;5.6;5.1;;;;;;;;;;;;;
2022/05/11 01:46:40;;;;;;;6.5;5.2;;;;;;;;;;;;;
2022/05/11 01:49:06;;;;;;;8.5;5.8;;;;;;;;;;;;;
2022/05/11 01:51:31;;;;;;;6.6;5.2;;;;;;;;;;;;;
2022/05/11 01:53:57;;;;;;;6.2;5.3;;;;;;;;;;;;;
2022/05/11 01:56:22;;;;;;;6;4.9;;;;;;;;;;;;;
2022/05/11 01:58:48;;;;;;;7.5;5.4;;;;;;;;;;;;;
2022/05/11 02:01:13;;;;;;;6.3;5;;;;;;;;;;;;;
2022/05/11 02:03:40;;;;;;;5.3;4.6;;;;;;;;;;;;;
2022/05/11 02:08:30;;;;;;;6.7;4.6;;;;;;;;;;;;;
2022/05/11 02:10:56;;;;;;;7;4.1;;;;;;;;;;;;;
2022/05/11 02:13:21;;;;;;;5.2;4.7;;;;;;;;;;;;;
2022/05/11 02:15:49;;;;;;;7.2;4.3;;;;;;;;;;;;;
2022/05/11 02:18:14;;;;;;;6.1;4;;;;;;;;;;;;;
2022/05/11 02:20:39;;;;;;;4.8;4.1;;;;;;;;;;;;;
2022/05/11 02:23:19;;;;;;;5.3;4.2;;;;;;;;;;;;;
2022/05/11 02:25:30;;;;;;;5.2;4.1;;;;;;;;;;;;;
2022/05/11 02:27:55;;;;;;;6.9;4.2;;;;;;;;;;;;;
2022/05/11 02:30:20;;;;;;;5.2;4.4;;;;;;;;;;;;;
2022/05/11 02:32:46;;;;;;;6.4;4.1;;;;;;;;;;;;;
2022/05/11 02:35:14;;;;;;;5;4.1;;;;;;;;;;;;;
2022/05/11 02:37:36;;;;;;;6;3.9;;;;;;;;;;;;;
2022/05/11 02:40:02;;;;;;;6;4.2;;;;;;;;;;;;;
2022/05/11 02:42:26;;;;;;;5.8;4.2;;;;;;;;;;;;;
2022/05/11 02:44:53;;;;;;;5.1;4.3;;;;;;;;;;;;;
2022/05/11 02:47:18;;;;;;;5.6;3.9;;;;;;;;;;;;;
2022/05/11 02:49:45;;;;;;;4.6;3.6;;;;;;;;;;;;;
2022/05/11 02:52:10;;;;;;;5.5;4.1;;;;;;;;;;;;;
2022/05/11 02:54:36;;;;;;;6.4;4;;;;;;;;;;;;;
2022/05/11 02:57:01;;;;;;;6.2;4.1;;;;;;;;;;;;;
2022/05/11 02:59:28;;;;;;;9.8;5.1;;;;;;;;;;;;;
2022/05/11 03:01:52;;;;;;;8.9;5.4;;;;;;;;;;;;;
2022/05/11 03:04:19;;;;;;;8.5;5;;;;;;;;;;;;;
2022/05/11 03:06:47;;;;;;;6.5;4.7;;;;;;;;;;;;;
2022/05/11 03:09:09;;;;;;;8.1;5.1;;;;;;;;;;;;;
2022/05/11 03:11:36;;;;;;;8.7;5.5;;;;;;;;;;;;;
2022/05/11 03:14:00;;;;;;;10.6;6.4;;;;;;;;;;;;;
2022/05/11 03:16:26;;;;;;;12.1;6.1;;;;;;;;;;;;;
2022/05/11 03:18:51;;;;;;;10.9;6;;;;;;;;;;;;;
2022/05/11 03:21:16;;;;;;;7.3;5;;;;;;;;;;;;;
2022/05/11 03:23:42;;;;;;;6.9;5;;;;;;;;;;;;;
2022/05/11 03:26:08;;;;;;;5.4;4.4;;;;;;;;;;;;;
2022/05/11 03:28:33;;;;;;;5.7;4.3;;;;;;;;;;;;;
2022/05/11 03:30:59;;;;;;;4.4;4;;;;;;;;;;;;;
2022/05/11 03:35:50;;;;;;;6.1;4.1;;;;;;;;;;;;;
2022/05/11 03:38:18;;;;;;;6.3;4.4;;;;;;;;;;;;;
2022/05/11 03:40:43;;;;;;;5.5;4.1;;;;;;;;;;;;;
2022/05/11 03:43:08;;;;;;;5.4;3.9;;;;;;;;;;;;;
2022/05/11 03:45:34;;;;;;;5.9;3.7;;;;;;;;;;;;;
2022/05/11 03:48:00;;;;;;;5;3.9;;;;;;;;;;;;;
2022/05/11 03:50:25;;;;;;;7.1;4.9;;;;;;;;;;;;;
2022/05/11 03:52:51;;;;;;;5.8;4;;;;;;;;;;;;;
2022/05/11 03:55:17;;;;;;;6.7;4.4;;;;;;;;;;;;;
2022/05/11 03:57:43;;;;;;;5.7;4.3;;;;;;;;;;;;;
2022/05/11 04:02:36;;;;;;;4.9;4;;;;;;;11.84;86.08398;940.7202;;;;
2022/05/11 04:05:01;;;;;;;5.3;3.8;;;;;;;11.81;86.20605;940.6512;;;;
2022/05/11 04:13:35;;;;;;;6.3;3.9;;;;;;;11.97;85.33008;940.7164;;;;
2022/05/11 04:16:09;;;;;;;4.5;3.6;;;;;;;11.96;85.36426;940.67;;;;
2022/05/11 04:18:37;;;;;;;5.9;4.4;;;;;;;11.95;85.33789;940.7003;;;;
2022/05/11 04:21:02;;;;;;;7.4;4.3;;;;;;;11.84;86.1084;940.7601;;;;
2022/05/11 04:23:28;;;;;;;6.8;4.5;;;;;;;11.95;85.58984;940.7402;;;;
2022/05/11 04:25:57;;;;;;;5.4;4.1;;;;;;;12.06;84.98242;940.6647;;;;
2022/05/11 04:28:25;;;;;;;7.1;4.1;;;;;;;12.11;84.59082;940.7329;;;;
2022/05/11 04:30:50;;;;;;;7.8;4.5;;;;;;;12.01;85.2373;940.7366;;;;
2022/05/11 04:33:22;;;;;;;9.8;4.8;;;;;;;11.94;85.8418;940.7042;;;;
2022/05/11 04:35:54;;;;;;;6.7;4.2;;;;;;;11.97;85.57422;940.6981;;;;
2022/05/11 04:38:19;;;;;;;8.8;4.4;;;;;;;11.92;85.93945;940.6785;;;;
2022/05/11 04:40:48;;;;;;;5.9;4.4;;;;;;;11.87;86.12695;940.7651;;;;
2022/05/11 04:43:17;;;;;;;6.5;4.6;;;;;;;11.84;86.64551;940.7425;;;;
2022/05/11 04:45:42;;;;;;;7.1;4.6;;;;;;;11.95;85.7959;940.7369;;;;
2022/05/11 04:50:37;;;;;;;5.2;4;;;;;;;11.92;85.4375;940.7025;;;;
2022/05/11 04:53:03;;;;;;;5.5;3.9;;;;;;;11.78;86.2793;940.782;;;;
2022/05/11 04:55:30;;;;;;;5.5;4.2;;;;;;;11.83;86.53027;940.7568;;;;
2022/05/11 04:57:55;;;;;;;6;4;;;;;;;12.02;85.44336;940.7363;;;;
2022/05/11 05:00:25;;;;;;;6;4.4;;;;;;;12.08;84.67871;940.7487;;;;
2022/05/11 05:02:55;;;;;;;7.2;4.2;;;;;;;12.13;84.18555;940.7339;;;;
2022/05/11 05:05:21;;;;;;;8.2;4.1;;;;;;;12.2;84.15137;940.7519;;;;
2022/05/11 05:07:49;;;;;;;5.5;3.9;;;;;;;12.14;84.20801;940.765;;;;
2022/05/11 05:10:23;;;;;;;6.9;4.2;;;;;;;12.19;83.73535;940.743;;;;
2022/05/11 05:21:37;;;;;;;5.6;4.2;;;;;;;13.93;77.77539;940.7254;;;;
2022/05/11 05:24:06;;;;;;;7.4;4.6;;;;;;;15.34;71.7373;940.7487;;;;
2022/05/11 05:26:56;;;;;;;5.1;3.8;;;;;;;16.27;67.40039;940.7225;;;;
2022/05/11 05:31:48;;;;;;;5.3;3.4;;;;;;;17.59;60.16504;940.6649;;;;
2022/05/11 05:34:19;;;;;;;5.3;3.1;;;;;;;17.12;61.33105;940.7708;;;;
2022/05/11 05:36:44;;;;;;;6;2.9;;;;;;;17.97;58.20898;940.6973;;;;
2022/05/11 05:39:15;;;;;;;3.1;2.5;;;;;;;17.44;59.45996;940.7233;;;;
2022/05/11 05:42:33;;;;;;;3.3;2.2;;;;;;;18.38;56.80957;940.7034;;;;
2022/05/11 05:45:02;;;;;;;4;2.6;;;;;;;19.34;53.59082;940.7399;;;;
2022/05/11 05:47:27;;;;;;;4.8;2.3;;;;;;;21.07;49.27441;940.6641;;;;
2022/05/11 05:49:57;;;;;;;2.6;2.4;;;;;;;22.61;45.95898;940.6501;;;;
2022/05/11 05:52:28;;;;;;;2.5;2.1;;;;;;;23.47;45.85938;940.653;;;;
2022/05/11 05:54:53;;;;;;;2.8;2.2;;;;;;;24.57;43.1084;940.6588;;;;
2022/05/11 05:57:21;;;;;;;3.5;2.1;;;;;;;26.05;39.44336;940.6481;;;;
2022/05/11 05:59:46;;;;;;;2.7;2.1;;;;;;;26.48;38.4043;940.5883;;;;
2022/05/11 06:02:16;;;;;;;3;1.8;;;;;;;27.03;36.66113;940.5621;;;;
2022/05/11 06:04:43;;;;;;;3.1;1.9;;;;;;;25.92;37.42188;940.605;;;;
2022/05/11 06:07:11;;;;;;;2.2;2;;;;;;;26.68;35.21191;940.5062;;;;
2022/05/11 06:09:41;;;;;;;2.9;1.9;;;;;;;25.73;38.64648;940.5849;;;;
2022/05/11 06:12:09;;;;;;;1.9;1.7;;;;;;;26.37;37.67383;940.5843;;;;
2022/05/11 06:14:40;;;;;;;2.9;1.8;;;;;;;26.24;36.81055;940.4956;;;;
2022/05/11 06:17:11;;;;;;;3.4;2.1;;;;;;;27.25;35.58789;940.5005;;;;
2022/05/11 06:19:39;;;;;;;3.4;2;;;;;;;26.52;36.22949;940.4157;;;;
2022/05/11 06:22:04;;;;;;;3.6;1.9;;;;;;;23.86;40.46191;940.5416;;;;
2022/05/11 06:24:30;;;;;;;2.5;1.8;;;;;;;22.26;43.2959;940.4448;;;;
2022/05/11 06:26:55;;;;;;;2.2;2;;;;;;;23.5;41.52441;940.5072;;;;
2022/05/11 06:29:21;;;;;;;3.6;1.9;;;;;;;25.14;38.20703;940.4149;;;;
2022/05/11 06:31:45;;;;;;;2.5;1.7;;;;;;;23.88;40.21777;940.3822;;;;
2022/05/11 06:34:13;;;;;;;3.6;1.8;;;;;;;23.83;40.51855;940.3899;;;;
2022/05/11 06:36:38;;;;;;;3.5;1.9;;;;;;;25.04;38.66992;940.3641;;;;
2022/05/11 06:39:08;;;;;;;6;2.4;;;;;;;25.97;37.80469;940.3367;;;;
2022/05/11 06:41:33;;;;;;;4.6;1.9;;;;;;;27.61;33.55176;940.3706;;;;
2022/05/11 06:44:03;;;;;;;2;1.8;;;;;;;27.35;32.83203;940.2698;;;;
2022/05/11 06:46:27;;;;;;;2.6;1.6;;;;;;;25.34;35.47266;940.2997;;;;
2022/05/11 06:48:55;;;;;;;2;1.8;;;;;;;27.01;36.7666;940.2637;;;;
2022/05/11 06:51:19;;;;;;;3.3;1.9;;;;;;;27.05;33.47461;940.2891;;;;
2022/05/11 07:01:03;;;;;;;3.3;1.7;;;;;;;25.77;35.61328;940.1772;;;;
2022/05/11 07:03:28;;;;;;;2.9;1.8;;;;;;;27.23;34.36621;940.1687;;;;
2022/05/11 07:05:54;;;;;;;2.4;1.7;;;;;;;25.41;36.04492;940.17;;;;
2022/05/11 07:08:19;;;;;;;3.5;1.6;;;;;;;26.91;34.19922;940.1222;;;;
2022/05/11 07:12:17;;;;;;;2.9;1.6;;;;;;;27.92;32.6123;940.1437;;;;
2022/05/11 07:13:13;;;;;;;2.4;1.5;;;;;;;29.89;32.09961;940.0617;;;;
2022/05/11 07:15:43;;;;;;;1.5;1.4;;;;;;;31.35;29.03223;940.1205;;;;
2022/05/11 07:18:08;;;;;;;2.5;1.7;;;;;;;31.91;28.27734;940.0832;;;;
2022/05/11 07:20:36;;;;;;;2.2;1.5;;;;;;;31.79;25.76563;940.0645;;;;
2022/05/11 07:23:00;;;;;;;1.9;1.6;;;;;;;27.56;31.06738;940.0773;;;;
2022/05/11 07:25:30;;;;;;;1.7;1.6;;;;;;;27.89;32.64648;939.9847;;;;
2022/05/11 07:27:58;;;;;;;2.3;1.7;;;;;;;29.71;28.66406;939.9744;;;;
2022/05/11 07:30:22;;;;;;;3.2;1.7;;;;;;;31.11;29.62695;940.0019;;;;
2022/05/11 07:32:50;;;;;;;1.6;1.3;;;;;;;30.62;29.41602;939.9503;;;;
2022/05/11 07:35:15;;;;;;;1.8;1.7;;;;;;;32.1;28.58887;939.9174;;;;
2022/05/11 07:37:48;;;;;;;2.2;1.5;;;;;;;32.98;26.03809;939.8811;;;;
2022/05/11 07:40:18;;;;;;;3.1;1.7;;;;;;;33.06;25.18945;939.8546;;;;
2022/05/11 07:42:47;;;;;;;2;1.8;;;;;;;33.75;25.25098;939.7569;;;;
2022/05/11 07:45:19;;;;;;;1.8;1.3;;;;;;;30.23;27.26465;939.7422;;;;
2022/05/11 07:47:44;;;;;;;2.4;1.5;;;;;;;30.98;27.13184;939.7019;;;;
2022/05/11 07:50:15;;;;;;;1.7;1.6;;;;;;;30.16;29.02734;939.69;;;;
2022/05/11 07:52:47;;;;;;;3.6;1.7;;;;;;;32.06;26.33301;939.6982;;;;
2022/05/11 07:55:13;;;;;;;1.6;1.5;;;;;;;33.01;25.93164;939.6674;;;;
2022/05/11 08:00:06;;;;;;;2.6;1.6;;;;;;;32.65;26.41504;939.6451;;;;
2022/05/11 08:02:28;;;;;;;2.3;1.5;;;;;;;33.71;25.41797;939.642;;;;
2022/05/11 08:04:57;;;;;;;1.4;1.3;;;;;;;32.51;23.86328;939.6194;;;;
2022/05/11 08:07:25;;;;;;;1.6;1.5;;;;;;;32.77;25.6543;939.6591;;;;
2022/05/11 08:09:47;;;;;;;3.4;1.3;;;;;;;33.64;24.37988;939.5627;;;;
2022/05/11 08:12:13;;;;;;;1.6;1.5;;;;;;;32.99;24.99316;939.6085;;;;
2022/05/11 08:14:38;;;;;;;1.5;1.4;;;;;;;33.17;24.25879;939.5208;;;;
2022/05/11 08:17:03;;;;;;;1.5;1.4;;;;;;;32.08;25.375;939.5388;;;;
2022/05/11 08:19:28;;;;;;;3.7;1.7;;;;;;;32.24;26.21094;939.5524;;;;
2022/05/11 08:21:54;;;;;;;2.8;1.7;;;;;;;33.64;25.00488;939.4934;;;;
2022/05/11 08:24:19;;;;;;;2.4;1.5;;;;;;;33.89;23.00977;939.4235;;;;
2022/05/11 08:26:50;;;;;;;2.6;1.5;;;;;;;32.89;24.91602;939.5095;;;;
2022/05/11 08:33:18;;;;;;;2;1.5;;;;;;;34.01;24.03809;939.4531;;;;
2022/05/11 08:34:06;;;;;;;4.1;1.3;;;;;;;32.72;23.29785;939.4243;;;;
2022/05/11 08:36:31;;;;;;;1.4;1.3;;;;;;;32.71;23.69336;939.3904;;;;
2022/05/11 08:39:00;;;;;;;4.1;1.4;;;;;;;33.91;23.66016;939.3502;;;;
2022/05/11 08:41:28;;;;;;;2.1;1.3;;;;;;;31.7;23.25781;939.3528;;;;
2022/05/11 08:43:53;;;;;;;2.1;1.3;;;;;;;31.43;23.36328;939.3756;;;;
2022/05/11 08:46:22;;;;;;;3.2;1.6;;;;;;;33.71;23.30078;939.3027;;;;
2022/05/11 08:48:47;;;;;;;1.4;1.3;;;;;;;34.9;21.70898;939.2395;;;;
2022/05/11 08:51:11;;;;;;;2.1;1.2;;;;;;;34.2;20.44727;939.3013;;;;
2022/05/11 08:53:37;;;;;;;3.2;1.2;;;;;;;34.48;20.70117;939.2818;;;;
2022/05/11 08:56:02;;;;;;;3;1.2;;;;;;;34.72;20.16992;939.2975;;;;
2022/05/11 08:58:27;;;;;;;1.9;1.2;;;;;;;32.56;22.08984;939.2625;;;;
2022/05/11 09:00:55;;;;;;;1.5;1.3;;;;;;;31.89;21.74609;939.2494;;;;
2022/05/11 09:03:20;;;;;;;2;1;;;;;;;32.91;21.02637;939.1978;;;;
2022/05/11 09:05:45;;;;;;;1.5;1.3;;;;;;;32.49;20.31152;939.1935;;;;
2022/05/11 09:08:11;;;;;;;2.1;1.3;;;;;;;29.85;23.11523;939.1525;;;;
2022/05/11 09:10:38;;;;;;;1.9;1.3;;;;;;;30.55;24.74023;939.1287;;;;
2022/05/11 09:13:04;;;;;;;1.8;1.1;;;;;;;31.38;22.08105;939.1724;;;;
2022/05/11 09:15:30;;;;;;;1.3;1.2;;;;;;;31.51;21.95508;939.1459;;;;
2022/05/11 09:17:59;;;;;;;1.2;1.1;;;;;;;30.74;22.38379;939.0597;;;;
2022/05/11 09:20:29;;;;;;;1.2;1.1;;;;;;;30.89;22.2959;939.0916;;;;
2022/05/11 09:22:58;;;;;;;1.2;1.1;;;;;;;30.55;23.28223;939.0333;;;;
2022/05/11 09:25:22;;;;;;;2.2;1.2;;;;;;;30.81;22.9375;939.062;;;;
2022/05/11 09:27:47;;;;;;;4.8;1.4;;;;;;;30.72;24.7373;939.0087;;;;
2022/05/11 09:30:17;;;;;;;2.3;1.4;;;;;;;30.51;24.89258;938.9512;;;;
2022/05/11 09:32:47;;;;;;;1.2;1.1;;;;;;;30.65;22.10449;938.9958;;;;
2022/05/11 09:35:18;;;;;;;1.6;1.1;;;;;;;29.42;22.93848;938.9427;;;;
2022/05/11 09:37:44;;;;;;;2.5;1.1;;;;;;;29.86;24.27344;938.9138;;;;
2022/05/11 09:40:20;;;;;;;2.7;1.3;;;;;;;30.18;25.3877;938.9694;;;;
2022/05/11 09:42:45;;;;;;;1.9;1;;;;;;;30.21;23.80176;938.9059;;;;
2022/05/11 09:45:20;;;;;;;4.6;1.3;;;;;;;30.42;24.99512;938.9084;;;;
2022/05/11 09:48:02;;;;;;;9.3;3;;;;;;;30.59;23.64258;938.8217;;;;
2022/05/11 09:50:11;;;;;;;25.2;8.3;;;;;;;30.16;22.5459;938.8401;;;;
2022/05/11 09:52:41;;;;;;;3.3;1.8;;;;;;;29.45;25.06152;938.7967;;;;
2022/05/11 09:55:15;;;;;;;27.1;6.6;;;;;;;29.79;24.49609;938.7545;;;;
2022/05/11 09:57:41;;;;;;;2.3;1.4;;;;;;;28.84;23.40918;938.738;;;;
2022/05/11 10:00:11;;;;;;;4.5;1.8;;;;;;;29.12;24.42383;938.7305;;;;
2022/05/11 10:02:40;;;;;;;11.3;4.1;;;;;;;29.65;23.12891;938.7302;;;;
2022/05/11 10:05:05;;;;;;;4.5;1.9;;;;;;;29.51;22.44238;938.6655;;;;
2022/05/11 10:07:30;;;;;;;5.4;1.7;;;;;;;29.61;23.12695;938.6494;;;;
2022/05/11 10:09:55;;;;;;;2.8;1.7;;;;;;;29.7;22.84473;938.5466;;;;
2022/05/11 10:12:22;;;;;;;9.8;3.5;;;;;;;30.63;22.5332;938.5243;;;;
2022/05/11 10:22:06;;;;;;;1.8;1;;;;;;;31.34;21.09766;938.4988;;;;
2022/05/11 10:24:31;;;;;;;1.3;1.1;;;;;;;31.3;20.49707;938.4533;;;;
2022/05/11 10:26:56;;;;;;;2.9;1;;;;;;;31.38;20.7041;938.4484;;;;
2022/05/11 10:29:21;;;;;;;1.1;1;;;;;;;31.63;20.2002;938.4199;;;;
2022/05/11 10:31:47;;;;;;;3.1;1.1;;;;;;;32.36;19.90918;938.3596;;;;
2022/05/11 10:34:12;;;;;;;1;0.9;;;;;;;31.95;20.44238;938.3898;;;;
2022/05/11 10:36:41;;;;;;;1.6;1;;;;;;;32.64;19.72949;938.299;;;;
2022/05/11 10:39:10;;;;;;;1.7;1.1;;;;;;;33.58;20.39551;938.2391;;;;
2022/05/11 10:41:36;;;;;;;1.4;1.1;;;;;;;33.55;18.03809;938.1883;;;;
2022/05/11 10:44:01;;;;;;;6.9;2.3;;;;;;;32.58;18.92285;938.1753;;;;
2022/05/11 10:46:29;;;;;;;1.9;1.1;;;;;;;32.56;18.52637;938.1736;;;;
2022/05/11 10:48:54;;;;;;;3.3;1.6;;;;;;;32.24;21.1748;938.1083;;;;
2022/05/11 10:51:20;;;;;;;2.3;1.2;;;;;;;33.09;17.91113;938.0966;;;;
2022/05/11 10:53:46;;;;;;;2.3;1.1;;;;;;;33.18;18.02246;938.0299;;;;
2022/05/11 10:56:10;;;;;;;1.4;0.9;;;;;;;32.3;18.86328;938.0197;;;;
2022/05/11 10:58:36;;;;;;;2.1;1.3;;;;;;;31.97;19.35352;938.062;;;;
2022/05/11 11:01:01;;;;;;;3.2;1.5;;;;;;;32.44;19.58887;937.9092;;;;
2022/05/11 11:03:26;;;;;;;2.1;1;;;;;;;31.96;18.90918;937.8737;;;;
2022/05/11 11:07:11;;;;;;;1.3;1.2;;;;;;;31.7;19.29395;937.9281;;;;
2022/05/11 11:08:17;;;;;;;1.8;1.2;;;;;;;32.26;18.51367;937.8576;;;;
2022/05/11 11:10:42;;;;;;;2.4;1.1;;;;;;;32.32;18.95996;937.776;;;;
2022/05/11 11:13:13;;;;;;;2.6;1.1;;;;;;;32.29;18.83887;937.8067;;;;
2022/05/11 11:15:43;;;;;;;1;0.9;;;;;;;32.74;19.57813;937.7813;;;;
2022/05/11 11:18:08;;;;;;;1.1;0.9;;;;;;;32.49;17.52734;937.7639;;;;
2022/05/11 11:20:33;;;;;;;2.2;1.2;;;;;;;32.5;18.77539;937.7175;;;;
2022/05/11 11:22:59;;;;;;;1.9;1.1;;;;;;;31.49;20.29004;937.6313;;;;
2022/05/11 11:25:24;;;;;;;8.5;1.2;;;;;;;31.23;21.78613;937.6461;;;;
2022/05/11 11:27:52;;;;;;;2.3;1.1;;;;;;;31.67;20.52637;937.6125;;;;
2022/05/11 11:30:17;;;;;;;3.2;1.2;;;;;;;31.93;24.27637;937.5889;;;;
2022/05/11 11:32:46;;;;;;;4.1;1;;;;;;;31.78;21.66895;937.5549;;;;
2022/05/11 11:35:18;;;;;;;1.2;1.1;;;;;;;31.54;20.18457;937.5061;;;;
2022/05/11 11:37:43;;;;;;;2.5;1.2;;;;;;;31.44;19.33105;937.5468;;;;
2022/05/11 11:40:08;;;;;;;1.6;1.1;;;;;;;30.58;21.10938;937.4858;;;;
2022/05/11 11:42:39;;;;;;;2.1;1.2;;;;;;;30.07;21.30078;937.5547;;;;
2022/05/11 11:45:18;;;;;;;2;1.2;;;;;;;30.21;21.74902;937.5361;;;;
2022/05/11 11:47:41;;;;;;;2.9;1.1;;;;;;;30.27;22.56348;937.5023;;;;
2022/05/11 11:50:06;;;;;;;1.1;1;;;;;;;30.17;20.61328;937.4597;;;;
2022/05/11 11:52:31;;;;;;;3.6;1.3;;;;;;;29.91;21.22168;937.4061;;;;
2022/05/11 11:54:56;;;;;;;3.3;0.9;;;;;;;29.84;20.40723;937.3764;;;;
2022/05/11 11:57:21;;;;;;;1.9;1.1;;;;;;;30.06;24.2002;937.3428;;;;
2022/05/11 11:59:48;;;;;;;2.5;1.1;;;;;;;30.33;22.98438;937.3605;;;;
2022/05/11 12:02:12;;;;;;;2.3;1.2;;;;;;;30.47;23.63672;937.27;;;;
2022/05/11 12:04:41;;;;;;;1.6;1;;;;;;;30.63;24.14746;937.2935;;;;
2022/05/11 12:16:50;;;;;;;1.3;1.2;;;;;;;30.3;25.33496;937.077;;;;
2022/05/11 12:19:14;;;;;;;3.4;1.2;;;;;;;30.27;25.41699;937.0291;;;;
2022/05/11 12:21:39;;;;;;;4.4;1.3;;;;;;;29.59;28.02539;937.0404;;;;
2022/05/11 12:24:05;;;;;;;2.2;1.2;;;;;;;29.38;27.75;937.025;;;;
2022/05/11 12:26:30;;;;;;;3.9;1.2;;;;;;;29.63;26.02539;936.9901;;;;
2022/05/11 12:29:54;;;;;;;1.7;1.2;;;;;;;29.75;26.13965;936.9822;;;;
2022/05/11 12:31:20;;;;;;;1.3;1.2;;;;;;;29.92;27.22266;937.0375;;;;
2022/05/11 12:33:47;;;;;;;1.8;1.2;;;;;;;29.94;25.87598;936.9698;;;;
2022/05/11 12:36:14;;;;;;;3;1.7;;;;;;;29.39;25.27246;936.9036;;;;
2022/05/11 12:38:39;;;;;;;2.5;1.2;;;;;;;29.43;23.62988;936.8395;;;;
2022/05/11 12:41:08;;;;;;;1.6;1.2;;;;;;;29.78;25.49707;936.8967;;;;
2022/05/11 12:43:32;;;;;;;5.4;1.3;;;;;;;29.74;32.14844;936.8873;;;;
2022/05/11 12:45:57;;;;;;;3.4;1.3;;;;;;;29.48;32.63086;936.8223;;;;
2022/05/11 12:48:27;;;;;;;4.3;1.4;;;;;;;29.07;28.6123;936.7885;;;;
2022/05/11 12:50:52;;;;;;;4.7;1.7;;;;;;;28.84;33.23926;936.7902;;;;
2022/05/11 12:53:17;;;;;;;1.7;1.3;;;;;;;29.03;31.63379;936.735;;;;
2022/05/11 12:55:42;;;;;;;2.1;1.3;;;;;;;28.8;30.6416;936.7081;;;;
2022/05/11 12:58:07;;;;;;;2.4;1.1;;;;;;;28.51;29.80176;936.5867;;;;
2022/05/11 13:00:33;;;;;;;2.3;1.6;;;;;;;28.46;33.86523;936.6209;;;;
2022/05/11 13:03:02;;;;;;;6.8;1.4;;;;;;;28.74;34.70703;936.5242;;;;
2022/05/11 13:05:27;;;;;;;3.6;1.6;;;;;;;28.91;31.75586;936.5287;;;;
2022/05/11 13:07:59;;;;;;;2;1.5;;;;;;;28.96;34.28418;936.5491;;;;
2022/05/11 13:10:23;;;;;;;4.5;1.4;;;;;;;28.87;34.94238;936.4839;;;;
2022/05/11 13:12:48;;;;;;;3.4;1.6;;;;;;;28.59;36.27734;936.4504;;;;
2022/05/11 13:15:20;;;;;;;5.1;1.5;;;;;;;28.59;36.55078;936.4432;;;;
2022/05/11 13:17:49;;;;;;;68.1;9.3;;;;;;;28.75;37.25488;936.4708;;;;
2022/05/11 13:20:18;;;;;;;2.8;1.7;;;;;;;28.47;36.31543;936.4328;;;;
2022/05/11 13:22:43;;;;;;;2.6;1.4;;;;;;;28.51;36.44922;936.3379;;;;
2022/05/11 13:25:17;;;;;;;2.9;1.7;;;;;;;28.27;36.45313;936.3372;;;;
2022/05/11 13:27:43;;;;;;;11.4;2.3;;;;;;;28.24;35.70215;936.346;;;;
2022/05/11 13:30:12;;;;;;;2.6;1.8;;;;;;;27.9;37.46875;936.2626;;;;
2022/05/11 13:32:42;;;;;;;3.8;2.8;;;;;;;27.9;36.91113;936.2869;;;;
2022/05/11 13:35:07;;;;;;;42.2;6.2;;;;;;;27.93;37.75684;936.2808;;;;
2022/05/11 13:37:37;;;;;;;4.1;2;;;;;;;28.05;36.61328;936.2431;;;;
2022/05/11 13:40:03;;;;;;;3.9;2.4;;;;;;;28.1;35.78613;936.2187;;;;
2022/05/11 13:42:28;;;;;;;2.6;1.9;;;;;;;28.02;39.67578;936.1969;;;;
2022/05/11 13:44:53;;;;;;;1.7;1.6;;;;;;;27.92;38.11133;936.1262;;;;
2022/05/11 13:49:44;;;;;;;2.1;1.6;;;;;;;27.79;37.26953;936.1647;;;;
2022/05/11 13:52:09;;;;;;;4.6;2.1;;;;;;;27.89;36.30371;936.1359;;;;
2022/05/11 13:54:35;;;;;;;2;1.6;;;;;;;27.96;38.35254;936.1483;;;;
2022/05/11 13:57:04;;;;;;;4.5;2;;;;;;;28.04;38.2168;936.025;;;;
2022/05/11 13:59:29;;;;;;;3;2;;;;;;;28.07;37.04297;936.08;;;;
2022/05/11 14:01:54;;;;;;;2.7;1.9;;;;;;;27.85;37.93945;935.9983;;;;
2022/05/11 14:04:23;;;;;;;2.7;1.8;;;;;;;27.64;39.35742;936.0326;;;;
2022/05/11 14:06:48;;;;;;;20.6;3.1;;;;;;;27.65;40.02344;935.9977;;;;
2022/05/11 14:09:13;;;;;;;4.5;2.3;;;;;;;27.69;37.51172;936.0184;;;;
2022/05/11 14:11:39;;;;;;;3.1;2;;;;;;;27.7;38.36621;935.9853;;;;
2022/05/11 14:14:03;;;;;;;2.7;2.1;;;;;;;27.62;38.36035;935.9838;;;;
2022/05/11 14:16:32;;;;;;;12.1;3.1;;;;;;;27.74;37.08691;935.938;;;;
2022/05/11 14:18:57;;;;;;;4;2.3;;;;;;;27.74;37.63379;935.8765;;;;
2022/05/11 14:21:25;;;;;;;4.3;2;;;;;;;27.71;36.69336;935.8761;;;;
2022/05/11 14:23:50;;;;;;;2.6;1.7;;;;;;;27.59;38.22656;935.877;;;;
2022/05/11 14:26:17;;;;;;;3.3;2;;;;;;;27.57;36.99023;935.838;;;;
2022/05/11 14:28:42;;;;;;;2.6;2.2;;;;;;;27.57;37.3584;935.9139;;;;
2022/05/11 14:31:10;;;;;;;6.1;2.5;;;;;;;27.57;38.03516;935.855;;;;
2022/05/11 14:33:39;;;;;;;2.7;2;;;;;;;27.53;36.95117;935.8477;;;;
2022/05/11 14:36:05;;;;;;;2.9;2;;;;;;;27.56;37.70117;935.8576;;;;
2022/05/11 14:38:34;;;;;;;5;2.1;;;;;;;27.52;37.2002;935.8434;;;;
2022/05/11 14:40:59;;;;;;;4.3;1.6;;;;;;;27.34;38.95215;935.8295;;;;
2022/05/11 14:43:27;;;;;;;2.5;2;;;;;;;27.36;36.85449;935.7933;;;;
2022/05/11 14:45:52;;;;;;;4.6;1.9;;;;;;;27.14;38.9707;935.7961;;;;
2022/05/11 14:48:20;;;;;;;2.3;1.9;;;;;;;27.17;37.87012;935.8051;;;;
2022/05/11 14:50:45;;;;;;;3.8;2;;;;;;;27.15;39.61133;935.8142;;;;
2022/05/11 14:53:14;;;;;;;4;2.1;;;;;;;27.16;41.04785;935.7996;;;;
2022/05/11 14:55:39;;;;;;;3.2;2.3;;;;;;;27.07;38.19336;935.7731;;;;
2022/05/11 15:03:01;;;;;;;3.6;2.2;;;;;;;26.92;38.77344;935.7559;;;;
2022/05/11 15:05:26;;;;;;;4.9;2.4;;;;;;;26.79;40.40918;935.8284;;;;
2022/05/11 15:07:54;;;;;;;4.2;2.1;;;;;;;26.92;38.09766;935.7576;;;;
2022/05/11 15:10:19;;;;;;;3.4;2.1;;;;;;;26.78;39.8877;935.7946;;;;
2022/05/11 15:15:10;;;;;;;9.4;4.1;;;;;;;26.68;41.53613;935.8306;;;;
2022/05/11 15:17:40;;;;;;;4;2.3;;;;;;;26.79;40.2666;935.7976;;;;
2022/05/11 15:20:10;;;;;;;2.8;2;;;;;;;26.77;41.93652;935.8318;;;;
2022/05/11 15:22:37;;;;;;;2;1.8;;;;;;;26.71;39.44238;935.7808;;;;
2022/05/11 15:25:03;;;;;;;3.3;2.1;;;;;;;26.74;42.52441;935.7957;;;;
2022/05/11 15:27:27;;;;;;;3.5;2.3;;;;;;;26.44;42.55566;935.8025;;;;
2022/05/11 15:29:53;;;;;;;2.5;2;;;;;;;26.39;40.37305;935.8482;;;;
2022/05/11 15:32:18;;;;;;;2.5;2.2;;;;;;;26.36;41.18652;935.8956;;;;
2022/05/11 15:34:45;;;;;;;2.6;2.2;;;;;;;26.5;40.51367;935.837;;;;
2022/05/11 15:37:10;;;;;;;2.8;2;;;;;;;26.55;40.42285;935.9269;;;;
2022/05/11 15:39:35;;;;;;;4.4;2.1;;;;;;;26.58;39.39551;935.8899;;;;
2022/05/11 15:42:04;;;;;;;2.9;2.1;;;;;;;26.6;40.43945;935.9077;;;;
2022/05/11 15:44:29;;;;;;;3.2;2.7;;;;;;;26.63;38.83203;935.8995;;;;
2022/05/11 15:46:58;;;;;;;4;2.9;;;;;;;26.61;39.23242;935.8627;;;;
2022/05/11 15:49:24;;;;;;;3.5;1.9;;;;;;;26.61;38.36719;935.8745;;;;
2022/05/11 15:52:12;;;;;;;3.9;1.9;;;;;;;26.58;39.27734;935.8542;;;;
2022/05/11 15:54:39;;;;;;;4;2.2;;;;;;;26.61;40.2627;935.8692;;;;
2022/05/11 15:57:04;;;;;;;2.2;2;;;;;;;26.6;38.39063;935.8449;;;;
2022/05/11 15:59:31;;;;;;;2.2;1.8;;;;;;;26.55;39.2627;935.9185;;;;
2022/05/11 16:01:56;;;;;;;3.4;2.2;;;;;;;26.54;39.1084;935.9158;;;;
2022/05/11 16:04:21;;;;;;;4.4;2.4;;;;;;;26.6;39.33887;935.8887;;;;
2022/05/11 16:06:48;;;;;;;5.6;2.4;;;;;;;26.64;38.96191;935.8984;;;;
2022/05/11 16:09:14;;;;;;;2.5;2.3;;;;;;;26.58;40.2959;935.8951;;;;
2022/05/11 16:11:40;;;;;;;2.8;2.2;;;;;;;26.55;39.41602;935.8592;;;;
2022/05/11 16:14:05;;;;;;;2.9;2.2;;;;;;;26.49;40.47656;935.8699;;;;
2022/05/11 16:16:33;;;;;;;3.7;2.2;;;;;;;26.52;39.9707;935.8669;;;;
2022/05/11 16:21:24;;;;;;;3.8;2.1;;;;;;;26.48;39.24512;935.8606;;;;
2022/05/11 16:23:49;;;;;;;2.4;2;;;;;;;26.46;39.84668;935.8289;;;;
2022/05/11 16:26:16;;;;;;;4.3;2.5;;;;;;;26.48;40.14453;935.8137;;;;
2022/05/11 16:28:41;;;;;;;5.2;2.5;;;;;;;26.57;40.05762;935.8963;;;;
2022/05/11 16:31:06;;;;;;;4.8;2.2;;;;;;;26.57;38.71875;935.8679;;;;
2022/05/11 16:33:31;;;;;;;7.5;2.6;;;;;;;26.55;39.22656;935.8397;;;;
2022/05/11 16:36:00;;;;;;;7.7;2.7;;;;;;;26.53;39.16602;935.785;;;;
2022/05/11 16:38:25;;;;;;;5.8;2.6;;;;;;;26.54;39.00098;935.8098;;;;
2022/05/11 16:40:52;;;;;;;4.9;2.3;;;;;;;26.51;38.9873;935.8217;;;;
2022/05/11 16:43:17;;;;;;;5.7;2.5;;;;;;;26.5;39.29492;935.8533;;;;
2022/05/11 16:45:45;;;;;;;9.1;2.3;;;;;;;26.46;39.27832;935.885;;;;